sensor_id;sensor_type;location;lat;lon;timestamp;pressure;altitude;pressure_sealevel;temperature;humidity
47913;BME280;33676;51.006;17.180;2023-10-08T00:01:20;100103.77;;;12.08;100.00
47913;BME280;33676;51.006;17.180;2023-10-08T00:03:49;100108.41;;;12.05;100.00
47913;BME280;33676;51.006;17.180;2023-10-08T00:06:18;100113.70;;;12.01;100.00
47913;BME280;33676;51.006;17.180;2023-10-08T00:08:48;100109.37;;;11.96;100.00
47913;BME280;33676;51.006;17.180;2023-10-08T00:11:17;100115.50;;;11.92;100.00
47913;BME280;33676;51.006;17.180;2023-10-08T00:13:44;100130.97;;;11.90;100.00
47913;BME280;33676;51.006;17.180;2023-10-08T00:16:13;100145.33;;;11.86;100.00
47913;BME280;33676;51.006;17.180;2023-10-08T00:18:44;100158.11;;;11.82;100.00
47913;BME280;33676;51.006;17.180;2023-10-08T00:21:21;100156.75;;;11.79;100.00
47913;BME280;33676;51.006;17.180;2023-10-08T00:23:55;100139.63;;;11.76;100.00
47913;BME280;33676;51.006;17.180;2023-10-08T00:26:25;100126.46;;;11.75;100.00
47913;BME280;33676;51.006;17.180;2023-10-08T00:29:06;100125.11;;;11.74;100.00
47913;BME280;33676;51.006;17.180;2023-10-08T00:32:04;100130.82;;;11.73;100.00
47913;BME280;33676;51.006;17.180;2023-10-08T00:34:40;100136.36;;;11.71;100.00
47913;BME280;33676;51.006;17.180;2023-10-08T00:37:11;100130.26;;;11.71;100.00
47913;BME280;33676;51.006;17.180;2023-10-08T00:39:41;100134.41;;;11.72;100.00
47913;BME280;33676;51.006;17.180;2023-10-08T00:42:09;100137.31;;;11.73;100.00
47913;BME280;33676;51.006;17.180;2023-10-08T00:44:36;100139.20;;;11.73;100.00
47913;BME280;33676;51.006;17.180;2023-10-08T00:47:18;100140.71;;;11.72;100.00
47913;BME280;33676;51.006;17.180;2023-10-08T00:49:47;100151.00;;;11.72;100.00
47913;BME280;33676;51.006;17.180;2023-10-08T00:52:50;100153.56;;;11.71;100.00
47913;BME280;33676;51.006;17.180;2023-10-08T00:55:27;100150.48;;;11.68;100.00
47913;BME280;33676;51.006;17.180;2023-10-08T00:58:00;100141.48;;;11.67;100.00
47913;BME280;33676;51.006;17.180;2023-10-08T01:00:35;100139.48;;;11.68;100.00
47913;BME280;33676;51.006;17.180;2023-10-08T01:08:06;100127.44;;;11.70;100.00
47913;BME280;33676;51.006;17.180;2023-10-08T01:10:35;100132.99;;;11.66;100.00
47913;BME280;33676;51.006;17.180;2023-10-08T01:13:04;100136.25;;;11.65;100.00
47913;BME280;33676;51.006;17.180;2023-10-08T01:15:34;100135.92;;;11.62;100.00
47913;BME280;33676;51.006;17.180;2023-10-08T01:18:05;100132.50;;;11.59;100.00
47913;BME280;33676;51.006;17.180;2023-10-08T01:20:44;100126.20;;;11.57;100.00
47913;BME280;33676;51.006;17.180;2023-10-08T01:23:16;100123.52;;;11.55;100.00
47913;BME280;33676;51.006;17.180;2023-10-08T01:25:49;100127.23;;;11.53;100.00
47913;BME280;33676;51.006;17.180;2023-10-08T01:28:25;100116.25;;;11.50;100.00
47913;BME280;33676;51.006;17.180;2023-10-08T01:30:56;100121.14;;;11.51;100.00
47913;BME280;33676;51.006;17.180;2023-10-08T01:33:31;100141.06;;;11.49;100.00
47913;BME280;33676;51.006;17.180;2023-10-08T01:36:00;100152.13;;;11.45;100.00
47913;BME280;33676;51.006;17.180;2023-10-08T01:38:32;100153.89;;;11.40;100.00
47913;BME280;33676;51.006;17.180;2023-10-08T01:41:04;100153.59;;;11.38;100.00
47913;BME280;33676;51.006;17.180;2023-10-08T01:43:35;100149.42;;;11.35;100.00
47913;BME280;33676;51.006;17.180;2023-10-08T01:46:03;100146.73;;;11.32;100.00
47913;BME280;33676;51.006;17.180;2023-10-08T01:48:33;100146.29;;;11.29;100.00
47913;BME280;33676;51.006;17.180;2023-10-08T01:51:06;100149.58;;;11.25;100.00
47913;BME280;33676;51.006;17.180;2023-10-08T01:53:39;100153.27;;;11.22;100.00
47913;BME280;33676;51.006;17.180;2023-10-08T01:56:08;100155.01;;;11.20;100.00
47913;BME280;33676;51.006;17.180;2023-10-08T01:58:39;100156.83;;;11.17;100.00
47913;BME280;33676;51.006;17.180;2023-10-08T02:01:07;100156.82;;;11.13;100.00
47913;BME280;33676;51.006;17.180;2023-10-08T02:03:40;100168.17;;;11.07;100.00
47913;BME280;33676;51.006;17.180;2023-10-08T02:06:11;100180.81;;;11.02;100.00
47913;BME280;33676;51.006;17.180;2023-10-08T02:08:42;100193.41;;;10.98;100.00
47913;BME280;33676;51.006;17.180;2023-10-08T02:11:11;100211.48;;;10.93;100.00
47913;BME280;33676;51.006;17.180;2023-10-08T02:13:39;100217.15;;;10.88;100.00
47913;BME280;33676;51.006;17.180;2023-10-08T02:16:07;100203.81;;;10.82;100.00
47913;BME280;33676;51.006;17.180;2023-10-08T02:18:36;100206.25;;;10.78;100.00
47913;BME280;33676;51.006;17.180;2023-10-08T02:21:05;100213.00;;;10.75;100.00
47913;BME280;33676;51.006;17.180;2023-10-08T02:23:33;100222.90;;;10.71;100.00
47913;BME280;33676;51.006;17.180;2023-10-08T02:26:03;100226.84;;;10.68;100.00
47913;BME280;33676;51.006;17.180;2023-10-08T02:28:31;100221.08;;;10.63;100.00
47913;BME280;33676;51.006;17.180;2023-10-08T02:31:01;100232.83;;;10.60;100.00
47913;BME280;33676;51.006;17.180;2023-10-08T02:33:31;100247.05;;;10.57;100.00
47913;BME280;33676;51.006;17.180;2023-10-08T02:36:02;100255.25;;;10.55;100.00
47913;BME280;33676;51.006;17.180;2023-10-08T02:38:32;100268.79;;;10.52;100.00
47913;BME280;33676;51.006;17.180;2023-10-08T02:41:06;100266.98;;;10.50;100.00
47913;BME280;33676;51.006;17.180;2023-10-08T02:43:34;100285.50;;;10.50;100.00
47913;BME280;33676;51.006;17.180;2023-10-08T02:46:04;100301.23;;;10.48;100.00
47913;BME280;33676;51.006;17.180;2023-10-08T02:48:35;100293.98;;;10.47;100.00
47913;BME280;33676;51.006;17.180;2023-10-08T02:51:04;100290.97;;;10.45;100.00
47913;BME280;33676;51.006;17.180;2023-10-08T02:53:42;100295.23;;;10.44;100.00
47913;BME280;33676;51.006;17.180;2023-10-08T02:56:12;100287.02;;;10.44;100.00
47913;BME280;33676;51.006;17.180;2023-10-08T02:58:42;100293.49;;;10.44;100.00
47913;BME280;33676;51.006;17.180;2023-10-08T03:01:16;100295.63;;;10.44;100.00
47913;BME280;33676;51.006;17.180;2023-10-08T03:03:44;100304.11;;;10.43;100.00
47913;BME280;33676;51.006;17.180;2023-10-08T03:06:15;100310.75;;;10.43;100.00
47913;BME280;33676;51.006;17.180;2023-10-08T03:08:43;100313.24;;;10.42;100.00
47913;BME280;33676;51.006;17.180;2023-10-08T03:11:12;100318.27;;;10.40;100.00
47913;BME280;33676;51.006;17.180;2023-10-08T03:13:46;100313.85;;;10.39;100.00
47913;BME280;33676;51.006;17.180;2023-10-08T03:16:15;100299.83;;;10.39;100.00
47913;BME280;33676;51.006;17.180;2023-10-08T03:18:43;100313.98;;;10.39;100.00
47913;BME280;33676;51.006;17.180;2023-10-08T03:21:13;100320.61;;;10.38;100.00
47913;BME280;33676;51.006;17.180;2023-10-08T03:24:19;100325.91;;;10.34;100.00
47913;BME280;33676;51.006;17.180;2023-10-08T03:27:05;100322.22;;;10.30;100.00
47913;BME280;33676;51.006;17.180;2023-10-08T03:29:49;100343.15;;;10.26;100.00
47913;BME280;33676;51.006;17.180;2023-10-08T03:32:17;100349.41;;;10.22;100.00
47913;BME280;33676;51.006;17.180;2023-10-08T03:34:48;100357.16;;;10.18;100.00
47913;BME280;33676;51.006;17.180;2023-10-08T03:37:20;100359.92;;;10.14;100.00
47913;BME280;33676;51.006;17.180;2023-10-08T03:39:50;100365.68;;;10.12;100.00
47913;BME280;33676;51.006;17.180;2023-10-08T03:42:21;100373.44;;;10.11;100.00
47913;BME280;33676;51.006;17.180;2023-10-08T03:44:52;100377.15;;;10.08;100.00
47913;BME280;33676;51.006;17.180;2023-10-08T03:47:24;100383.33;;;10.05;100.00
47913;BME280;33676;51.006;17.180;2023-10-08T03:49:55;100384.08;;;10.02;100.00
47913;BME280;33676;51.006;17.180;2023-10-08T03:52:23;100380.52;;;10.00;100.00
47913;BME280;33676;51.006;17.180;2023-10-08T03:54:54;100390.77;;;9.99;100.00
47913;BME280;33676;51.006;17.180;2023-10-08T03:57:55;100402.83;;;9.95;100.00
47913;BME280;33676;51.006;17.180;2023-10-08T04:00:26;100410.61;;;9.94;100.00
47913;BME280;33676;51.006;17.180;2023-10-08T04:03:08;100418.75;;;9.93;100.00
47913;BME280;33676;51.006;17.180;2023-10-08T04:05:40;100416.06;;;9.91;100.00
47913;BME280;33676;51.006;17.180;2023-10-08T04:08:20;100425.08;;;9.90;100.00
47913;BME280;33676;51.006;17.180;2023-10-08T04:11:10;100424.31;;;9.88;100.00
47913;BME280;33676;51.006;17.180;2023-10-08T04:13:50;100425.98;;;9.87;100.00
47913;BME280;33676;51.006;17.180;2023-10-08T04:16:20;100426.92;;;9.86;100.00
47913;BME280;33676;51.006;17.180;2023-10-08T04:18:48;100421.85;;;9.87;100.00
47913;BME280;33676;51.006;17.180;2023-10-08T04:21:18;100418.15;;;9.87;100.00
47913;BME280;33676;51.006;17.180;2023-10-08T04:23:49;100422.41;;;9.88;100.00
47913;BME280;33676;51.006;17.180;2023-10-08T04:26:20;100416.89;;;9.87;100.00
47913;BME280;33676;51.006;17.180;2023-10-08T04:28:56;100423.23;;;9.87;100.00
47913;BME280;33676;51.006;17.180;2023-10-08T04:31:29;100418.73;;;9.86;100.00
47913;BME280;33676;51.006;17.180;2023-10-08T04:34:05;100413.24;;;9.87;100.00
47913;BME280;33676;51.006;17.180;2023-10-08T04:36:50;100415.08;;;9.88;100.00
47913;BME280;33676;51.006;17.180;2023-10-08T04:39:23;100424.76;;;9.89;100.00
47913;BME280;33676;51.006;17.180;2023-10-08T04:42:03;100425.86;;;9.91;100.00
47913;BME280;33676;51.006;17.180;2023-10-08T04:44:39;100419.65;;;9.92;100.00
47913;BME280;33676;51.006;17.180;2023-10-08T04:47:08;100425.88;;;9.93;100.00
47913;BME280;33676;51.006;17.180;2023-10-08T04:49:36;100431.14;;;9.93;100.00
47913;BME280;33676;51.006;17.180;2023-10-08T04:52:17;100416.26;;;9.93;100.00
47913;BME280;33676;51.006;17.180;2023-10-08T05:09:21;100439.35;;;9.93;100.00
47913;BME280;33676;51.006;17.180;2023-10-08T05:11:51;100448.70;;;9.91;100.00
47913;BME280;33676;51.006;17.180;2023-10-08T05:14:23;100470.26;;;9.93;100.00
47913;BME280;33676;51.006;17.180;2023-10-08T05:17:08;100481.67;;;9.94;100.00
47913;BME280;33676;51.006;17.180;2023-10-08T05:19:41;100486.91;;;9.94;100.00
47913;BME280;33676;51.006;17.180;2023-10-08T05:22:14;100494.77;;;9.94;100.00
47913;BME280;33676;51.006;17.180;2023-10-08T05:24:53;100497.37;;;9.95;100.00
47913;BME280;33676;51.006;17.180;2023-10-08T05:27:57;100495.39;;;9.95;100.00
47913;BME280;33676;51.006;17.180;2023-10-08T05:30:28;100494.27;;;9.97;100.00
47913;BME280;33676;51.006;17.180;2023-10-08T05:32:58;100518.96;;;9.99;100.00
47913;BME280;33676;51.006;17.180;2023-10-08T05:35:36;100526.77;;;9.99;100.00
47913;BME280;33676;51.006;17.180;2023-10-08T05:38:17;100524.79;;;10.00;100.00
47913;BME280;33676;51.006;17.180;2023-10-08T05:41:15;100533.61;;;10.01;100.00
47913;BME280;33676;51.006;17.180;2023-10-08T05:44:02;100537.86;;;10.03;100.00
47913;BME280;33676;51.006;17.180;2023-10-08T05:47:15;100542.39;;;10.05;100.00
47913;BME280;33676;51.006;17.180;2023-10-08T05:50:04;100554.13;;;10.07;100.00
47913;BME280;33676;51.006;17.180;2023-10-08T05:52:47;100568.81;;;10.09;100.00
47913;BME280;33676;51.006;17.180;2023-10-08T05:55:21;100577.76;;;10.11;100.00
47913;BME280;33676;51.006;17.180;2023-10-08T06:00:56;100575.64;;;10.14;100.00
47913;BME280;33676;51.006;17.180;2023-10-08T06:03:36;100580.59;;;10.16;100.00
47913;BME280;33676;51.006;17.180;2023-10-08T06:06:08;100582.73;;;10.18;100.00
47913;BME280;33676;51.006;17.180;2023-10-08T06:08:41;100597.14;;;10.19;100.00
47913;BME280;33676;51.006;17.180;2023-10-08T06:11:28;100608.63;;;10.20;100.00
47913;BME280;33676;51.006;17.180;2023-10-08T06:14:15;100619.05;;;10.21;100.00
47913;BME280;33676;51.006;17.180;2023-10-08T06:17:19;100634.35;;;10.22;100.00
47913;BME280;33676;51.006;17.180;2023-10-08T06:20:35;100639.30;;;10.23;100.00
47913;BME280;33676;51.006;17.180;2023-10-08T06:23:05;100641.11;;;10.27;100.00
47913;BME280;33676;51.006;17.180;2023-10-08T06:25:35;100644.14;;;10.32;100.00
47913;BME280;33676;51.006;17.180;2023-10-08T06:28:15;100638.83;;;10.38;100.00
47913;BME280;33676;51.006;17.180;2023-10-08T06:30:54;100642.70;;;10.44;100.00
47913;BME280;33676;51.006;17.180;2023-10-08T06:33:24;100648.80;;;10.51;100.00
47913;BME280;33676;51.006;17.180;2023-10-08T06:36:00;100652.79;;;10.59;100.00
47913;BME280;33676;51.006;17.180;2023-10-08T06:39:04;100657.10;;;10.72;100.00
47913;BME280;33676;51.006;17.180;2023-10-08T06:41:40;100665.16;;;10.82;100.00
47913;BME280;33676;51.006;17.180;2023-10-08T06:44:16;100675.92;;;10.90;100.00
47913;BME280;33676;51.006;17.180;2023-10-08T06:46:44;100679.58;;;10.97;100.00
47913;BME280;33676;51.006;17.180;2023-10-08T06:49:14;100687.66;;;11.04;100.00
47913;BME280;33676;51.006;17.180;2023-10-08T06:51:43;100691.39;;;11.10;100.00
47913;BME280;33676;51.006;17.180;2023-10-08T06:54:12;100687.36;;;11.17;100.00
47913;BME280;33676;51.006;17.180;2023-10-08T06:56:45;100695.42;;;11.26;100.00
47913;BME280;33676;51.006;17.180;2023-10-08T06:59:15;100700.92;;;11.35;100.00
47913;BME280;33676;51.006;17.180;2023-10-08T07:01:47;100702.67;;;11.44;100.00
47913;BME280;33676;51.006;17.180;2023-10-08T07:04:15;100713.33;;;11.56;100.00
47913;BME280;33676;51.006;17.180;2023-10-08T07:06:45;100720.64;;;11.66;100.00
47913;BME280;33676;51.006;17.180;2023-10-08T07:09:14;100724.35;;;11.75;100.00
47913;BME280;33676;51.006;17.180;2023-10-08T07:11:58;100732.25;;;11.81;100.00
47913;BME280;33676;51.006;17.180;2023-10-08T07:14:34;100742.10;;;11.83;100.00
47913;BME280;33676;51.006;17.180;2023-10-08T07:17:03;100749.59;;;11.89;100.00
47913;BME280;33676;51.006;17.180;2023-10-08T07:19:36;100752.38;;;11.93;100.00
47913;BME280;33676;51.006;17.180;2023-10-08T07:22:09;100756.88;;;11.96;100.00
47913;BME280;33676;51.006;17.180;2023-10-08T07:24:51;100766.72;;;12.00;100.00
47913;BME280;33676;51.006;17.180;2023-10-08T07:27:21;100777.61;;;12.04;100.00
47913;BME280;33676;51.006;17.180;2023-10-08T07:30:00;100778.80;;;12.10;100.00
47913;BME280;33676;51.006;17.180;2023-10-08T07:32:58;100777.44;;;12.20;100.00
47913;BME280;33676;51.006;17.180;2023-10-08T07:35:27;100773.93;;;12.25;100.00
47913;BME280;33676;51.006;17.180;2023-10-08T07:37:58;100773.55;;;12.23;100.00
47913;BME280;33676;51.006;17.180;2023-10-08T07:40:28;100782.98;;;12.19;100.00
47913;BME280;33676;51.006;17.180;2023-10-08T07:42:59;100787.44;;;12.09;100.00
47913;BME280;33676;51.006;17.180;2023-10-08T07:45:34;100784.02;;;11.94;100.00
47913;BME280;33676;51.006;17.180;2023-10-08T07:48:04;100795.89;;;11.81;100.00
47913;BME280;33676;51.006;17.180;2023-10-08T07:50:44;100803.78;;;11.69;100.00
47913;BME280;33676;51.006;17.180;2023-10-08T07:53:13;100805.58;;;11.61;100.00
47913;BME280;33676;51.006;17.180;2023-10-08T07:55:51;100806.14;;;11.56;100.00
47913;BME280;33676;51.006;17.180;2023-10-08T07:58:19;100806.89;;;11.55;100.00
47913;BME280;33676;51.006;17.180;2023-10-08T08:00:48;100811.82;;;11.52;100.00
47913;BME280;33676;51.006;17.180;2023-10-08T08:03:20;100811.32;;;11.52;100.00
47913;BME280;33676;51.006;17.180;2023-10-08T08:05:49;100807.25;;;11.50;100.00
47913;BME280;33676;51.006;17.180;2023-10-08T08:08:21;100812.45;;;11.53;100.00
47913;BME280;33676;51.006;17.180;2023-10-08T08:10:51;100816.36;;;11.57;100.00
47913;BME280;33676;51.006;17.180;2023-10-08T08:13:25;100821.34;;;11.61;100.00
47913;BME280;33676;51.006;17.180;2023-10-08T08:15:56;100826.75;;;11.64;100.00
47913;BME280;33676;51.006;17.180;2023-10-08T08:18:26;100836.63;;;11.65;100.00
47913;BME280;33676;51.006;17.180;2023-10-08T08:21:02;100844.14;;;11.70;100.00
47913;BME280;33676;51.006;17.180;2023-10-08T08:23:31;100846.98;;;11.79;100.00
47913;BME280;33676;51.006;17.180;2023-10-08T08:25:59;100850.29;;;11.91;100.00
47913;BME280;33676;51.006;17.180;2023-10-08T08:28:35;100854.84;;;12.05;100.00
47913;BME280;33676;51.006;17.180;2023-10-08T08:31:05;100856.48;;;12.18;100.00
47913;BME280;33676;51.006;17.180;2023-10-08T08:33:36;100854.19;;;12.30;100.00
47913;BME280;33676;51.006;17.180;2023-10-08T08:36:26;100854.02;;;12.50;100.00
47913;BME280;33676;51.006;17.180;2023-10-08T08:38:55;100854.31;;;12.72;100.00
47913;BME280;33676;51.006;17.180;2023-10-08T08:41:24;100853.95;;;12.94;100.00
47913;BME280;33676;51.006;17.180;2023-10-08T08:43:54;100864.55;;;13.15;100.00
47913;BME280;33676;51.006;17.180;2023-10-08T09:00:59;100882.45;;;13.83;100.00
47913;BME280;33676;51.006;17.180;2023-10-08T09:03:29;100892.23;;;13.94;99.97
47913;BME280;33676;51.006;17.180;2023-10-08T09:06:01;100890.26;;;14.03;98.57
47913;BME280;33676;51.006;17.180;2023-10-08T09:08:37;100892.40;;;14.15;99.36
47913;BME280;33676;51.006;17.180;2023-10-08T09:11:28;100896.14;;;14.34;98.82
47913;BME280;33676;51.006;17.180;2023-10-08T09:13:57;100900.63;;;14.45;97.75
47913;BME280;33676;51.006;17.180;2023-10-08T09:16:25;100906.04;;;14.56;96.89
47913;BME280;33676;51.006;17.180;2023-10-08T09:18:56;100904.30;;;14.66;96.56
47913;BME280;33676;51.006;17.180;2023-10-08T09:21:24;100907.83;;;14.78;96.66
47913;BME280;33676;51.006;17.180;2023-10-08T09:23:58;100904.61;;;14.89;96.20
47913;BME280;33676;51.006;17.180;2023-10-08T09:26:27;100903.94;;;15.09;97.28
47913;BME280;33676;51.006;17.180;2023-10-08T09:28:58;100907.84;;;15.31;97.17
47913;BME280;33676;51.006;17.180;2023-10-08T09:31:30;100912.64;;;15.50;97.27
47913;BME280;33676;51.006;17.180;2023-10-08T09:34:04;100911.91;;;15.76;97.87
47913;BME280;33676;51.006;17.180;2023-10-08T09:36:32;100917.29;;;15.99;97.74
47913;BME280;33676;51.006;17.180;2023-10-08T09:39:03;100922.47;;;16.25;97.97
47913;BME280;33676;51.006;17.180;2023-10-08T09:41:34;100923.47;;;16.41;97.18
47913;BME280;33676;51.006;17.180;2023-10-08T09:44:05;100924.20;;;16.63;97.24
47913;BME280;33676;51.006;17.180;2023-10-08T09:46:38;100931.53;;;16.87;96.98
47913;BME280;33676;51.006;17.180;2023-10-08T09:49:09;100940.46;;;17.03;95.54
47913;BME280;33676;51.006;17.180;2023-10-08T09:56:36;100960.45;;;17.15;92.34
47913;BME280;33676;51.006;17.180;2023-10-08T09:59:27;100968.17;;;17.32;93.33
47913;BME280;33676;51.006;17.180;2023-10-08T10:01:57;100974.60;;;17.44;91.53
47913;BME280;33676;51.006;17.180;2023-10-08T10:04:31;100978.85;;;17.55;92.03
47913;BME280;33676;51.006;17.180;2023-10-08T10:07:14;100983.08;;;17.76;92.45
47913;BME280;33676;51.006;17.180;2023-10-08T10:09:51;100993.27;;;17.89;92.03
47913;BME280;33676;51.006;17.180;2023-10-08T10:12:26;100992.74;;;18.07;91.15
47913;BME280;33676;51.006;17.180;2023-10-08T10:14:56;100994.82;;;18.22;90.22
47913;BME280;33676;51.006;17.180;2023-10-08T10:17:27;100991.03;;;18.35;88.81
47913;BME280;33676;51.006;17.180;2023-10-08T10:20:12;100991.04;;;18.42;87.72
47913;BME280;33676;51.006;17.180;2023-10-08T10:22:44;100991.42;;;18.41;86.49
47913;BME280;33676;51.006;17.180;2023-10-08T10:25:16;100999.81;;;18.44;85.67
47913;BME280;33676;51.006;17.180;2023-10-08T10:30:22;101000.02;;;18.57;86.13
47913;BME280;33676;51.006;17.180;2023-10-08T10:32:52;100994.70;;;18.78;86.66
47913;BME280;33676;51.006;17.180;2023-10-08T10:35:21;100998.86;;;19.00;86.51
47913;BME280;33676;51.006;17.180;2023-10-08T10:37:52;101001.65;;;19.08;84.59
47913;BME280;33676;51.006;17.180;2023-10-08T10:40:22;101007.02;;;19.17;84.41
47913;BME280;33676;51.006;17.180;2023-10-08T10:43:09;101005.00;;;19.35;84.76
47913;BME280;33676;51.006;17.180;2023-10-08T10:45:38;101007.64;;;19.59;84.43
47913;BME280;33676;51.006;17.180;2023-10-08T10:48:10;101009.03;;;19.71;83.05
47913;BME280;33676;51.006;17.180;2023-10-08T10:50:49;101007.77;;;19.77;82.44
47913;BME280;33676;51.006;17.180;2023-10-08T10:53:46;101006.03;;;19.87;81.80
47913;BME280;33676;51.006;17.180;2023-10-08T10:56:36;101005.55;;;20.04;81.97
47913;BME280;33676;51.006;17.180;2023-10-08T10:59:11;101007.46;;;20.29;82.34
47913;BME280;33676;51.006;17.180;2023-10-08T11:01:55;101008.87;;;20.45;81.06
47913;BME280;33676;51.006;17.180;2023-10-08T11:04:56;101014.10;;;20.55;79.50
47913;BME280;33676;51.006;17.180;2023-10-08T11:07:55;101013.12;;;20.44;76.96
47913;BME280;33676;51.006;17.180;2023-10-08T11:10:39;101011.68;;;20.21;76.53
47913;BME280;33676;51.006;17.180;2023-10-08T11:13:08;101013.61;;;20.23;76.95
47913;BME280;33676;51.006;17.180;2023-10-08T11:15:54;101018.39;;;20.15;74.03
47913;BME280;33676;51.006;17.180;2023-10-08T11:18:45;101014.99;;;20.02;74.55
47913;BME280;33676;51.006;17.180;2023-10-08T11:21:25;101010.10;;;20.17;76.01
47913;BME280;33676;51.006;17.180;2023-10-08T11:23:54;101010.63;;;20.49;76.45
47913;BME280;33676;51.006;17.180;2023-10-08T11:26:36;101009.91;;;20.68;75.47
47913;BME280;33676;51.006;17.180;2023-10-08T11:29:08;101009.60;;;20.68;72.45
47913;BME280;33676;51.006;17.180;2023-10-08T11:31:43;101007.04;;;20.56;71.96
47913;BME280;33676;51.006;17.180;2023-10-08T11:34:12;101004.98;;;20.63;72.48
47913;BME280;33676;51.006;17.180;2023-10-08T11:36:42;101007.14;;;20.74;72.42
47913;BME280;33676;51.006;17.180;2023-10-08T11:39:22;101007.64;;;20.87;71.97
47913;BME280;33676;51.006;17.180;2023-10-08T11:42:01;101007.45;;;20.98;71.38
47913;BME280;33676;51.006;17.180;2023-10-08T11:45:07;101004.44;;;21.09;71.13
47913;BME280;33676;51.006;17.180;2023-10-08T11:47:54;101004.88;;;21.24;70.18
47913;BME280;33676;51.006;17.180;2023-10-08T11:50:30;101006.20;;;21.34;69.87
47913;BME280;33676;51.006;17.180;2023-10-08T11:53:01;101001.58;;;21.48;69.94
47913;BME280;33676;51.006;17.180;2023-10-08T11:55:33;101009.18;;;21.67;69.77
47913;BME280;33676;51.006;17.180;2023-10-08T11:58:19;101007.37;;;21.81;69.14
47913;BME280;33676;51.006;17.180;2023-10-08T12:00:48;101003.71;;;21.96;68.63
47913;BME280;33676;51.006;17.180;2023-10-08T12:03:21;101003.11;;;22.12;68.41
47913;BME280;33676;51.006;17.180;2023-10-08T12:05:53;101002.40;;;22.37;68.77
47913;BME280;33676;51.006;17.180;2023-10-08T12:08:28;101004.88;;;22.69;69.06
47913;BME280;33676;51.006;17.180;2023-10-08T12:10:57;101010.80;;;22.84;67.81
47913;BME280;33676;51.006;17.180;2023-10-08T12:13:28;101013.91;;;22.78;65.66
47913;BME280;33676;51.006;17.180;2023-10-08T12:15:57;101013.77;;;22.66;63.75
47913;BME280;33676;51.006;17.180;2023-10-08T12:18:39;101013.91;;;22.42;62.13
47913;BME280;33676;51.006;17.180;2023-10-08T12:21:09;101015.70;;;22.09;60.70
47913;BME280;33676;51.006;17.180;2023-10-08T12:23:45;101013.63;;;21.78;60.83
47913;BME280;33676;51.006;17.180;2023-10-08T12:26:15;101011.21;;;21.68;61.75
47913;BME280;33676;51.006;17.180;2023-10-08T12:28:47;101005.30;;;21.78;62.54
47913;BME280;33676;51.006;17.180;2023-10-08T12:31:21;101008.81;;;21.89;61.41
47913;BME280;33676;51.006;17.180;2023-10-08T12:33:53;101006.52;;;21.87;61.01
47913;BME280;33676;51.006;17.180;2023-10-08T12:36:28;101004.24;;;21.84;60.94
47913;BME280;33676;51.006;17.180;2023-10-08T12:39:02;101007.18;;;21.95;61.44
47913;BME280;33676;51.006;17.180;2023-10-08T12:41:41;101009.62;;;22.13;61.29
47913;BME280;33676;51.006;17.180;2023-10-08T12:44:12;101013.38;;;22.21;60.53
47913;BME280;33676;51.006;17.180;2023-10-08T12:46:44;101023.23;;;22.26;59.79
47913;BME280;33676;51.006;17.180;2023-10-08T12:49:17;101013.16;;;22.19;58.74
47913;BME280;33676;51.006;17.180;2023-10-08T12:51:49;101007.75;;;22.04;58.38
47913;BME280;33676;51.006;17.180;2023-10-08T12:54:18;101008.91;;;22.08;59.19
47913;BME280;33676;51.006;17.180;2023-10-08T12:56:50;101016.36;;;22.20;58.91
47913;BME280;33676;51.006;17.180;2023-10-08T12:59:23;101015.36;;;22.19;58.37
47913;BME280;33676;51.006;17.180;2023-10-08T13:01:53;101019.27;;;22.09;57.35
47913;BME280;33676;51.006;17.180;2023-10-08T13:04:24;101014.52;;;22.01;57.79
47913;BME280;33676;51.006;17.180;2023-10-08T13:06:58;101015.86;;;21.85;57.44
47913;BME280;33676;51.006;17.180;2023-10-08T13:09:32;101017.63;;;21.35;56.84
47913;BME280;33676;51.006;17.180;2023-10-08T13:12:07;101012.72;;;20.77;56.67
47913;BME280;33676;51.006;17.180;2023-10-08T13:14:35;101012.80;;;20.22;56.75
47913;BME280;33676;51.006;17.180;2023-10-08T13:17:04;101014.95;;;20.08;57.04
47913;BME280;33676;51.006;17.180;2023-10-08T13:19:39;101015.08;;;20.27;57.18
47913;BME280;33676;51.006;17.180;2023-10-08T13:22:07;101010.82;;;20.47;57.57
47913;BME280;33676;51.006;17.180;2023-10-08T13:24:36;101010.48;;;20.81;58.01
47913;BME280;33676;51.006;17.180;2023-10-08T13:27:05;101015.89;;;21.24;57.52
47913;BME280;33676;51.006;17.180;2023-10-08T13:29:36;101022.82;;;21.27;56.22
47913;BME280;33676;51.006;17.180;2023-10-08T13:32:05;101023.14;;;20.70;54.97
47913;BME280;33676;51.006;17.180;2023-10-08T13:34:33;101023.86;;;20.10;54.33
47913;BME280;33676;51.006;17.180;2023-10-08T13:37:01;101029.07;;;19.57;54.21
47913;BME280;33676;51.006;17.180;2023-10-08T13:39:30;101038.50;;;19.38;54.00
47913;BME280;33676;51.006;17.180;2023-10-08T13:41:59;101040.64;;;19.46;54.11
47913;BME280;33676;51.006;17.180;2023-10-08T13:44:30;101037.26;;;19.55;54.56
47913;BME280;33676;51.006;17.180;2023-10-08T13:46:59;101034.86;;;19.83;55.48
47913;BME280;33676;51.006;17.180;2023-10-08T13:49:29;101029.32;;;20.25;56.55
47913;BME280;33676;51.006;17.180;2023-10-08T13:52:00;101034.73;;;20.75;56.69
47913;BME280;33676;51.006;17.180;2023-10-08T13:54:29;101037.48;;;21.24;56.78
47913;BME280;33676;51.006;17.180;2023-10-08T13:56:59;101041.31;;;21.66;56.21